createdAt,value
2022-10-25T00:00:06.429Z,3.91
2022-10-25T00:03:16.593Z,4.21
2022-10-25T00:06:20.984Z,4.40
2022-10-25T00:09:28.198Z,5.13
2022-10-25T00:12:32.439Z,5.78
2022-10-25T00:15:36.836Z,5.93
2022-10-25T00:18:41.279Z,6.84
2022-10-25T00:21:45.757Z,7.29
2022-10-25T00:24:50.140Z,7.73
2022-10-25T00:27:54.473Z,8.67
2022-10-25T00:31:07.302Z,8.82
2022-10-25T00:34:12.526Z,8.66
2022-10-25T00:37:16.958Z,9.38
2022-10-25T00:40:21.396Z,9.60
2022-10-25T00:43:38.012Z,9.65
2022-10-25T00:46:42.520Z,9.68
2022-10-25T00:49:58.870Z,9.72
2022-10-25T00:53:15.102Z,9.68
2022-10-25T00:56:21.414Z,9.94
2022-10-25T00:59:29.491Z,9.81
2022-10-25T01:02:34.288Z,10.17
2022-10-25T01:05:39.290Z,10.05
2022-10-25T01:08:45.237Z,10.08
2022-10-25T01:11:50.503Z,10.26
2022-10-25T01:14:56.722Z,10.49
2022-10-25T01:18:24.796Z,10.04
2022-10-25T01:21:34.827Z,10.93
2022-10-25T01:25:15.580Z,10.58
2022-10-25T01:28:35.198Z,10.66
2022-10-25T01:32:15.048Z,10.80
2022-10-25T01:35:27.849Z,10.66
2022-10-25T01:38:49.818Z,10.57
2022-10-25T01:42:12.613Z,10.14
2022-10-25T01:45:24.790Z,9.89
2022-10-25T01:48:38.061Z,10.19
2022-10-25T01:51:42.618Z,9.52
2022-10-25T01:54:46.843Z,9.40
2022-10-25T01:58:24.153Z,9.34
2022-10-25T02:05:32.316Z,9.29
2022-10-25T02:08:42.881Z,9.33
2022-10-25T02:11:47.672Z,9.45
2022-10-25T02:15:04.883Z,9.03
2022-10-25T02:18:15.504Z,9.12
2022-10-25T02:21:21.162Z,8.87
2022-10-25T02:24:33.349Z,9.23
2022-10-25T02:27:43.264Z,8.56
2022-10-25T02:30:51.302Z,9.18
2022-10-25T02:33:55.764Z,9.16
2022-10-25T02:37:03.194Z,9.43
2022-10-25T02:40:08.405Z,9.33
2022-10-25T02:43:12.791Z,8.94
2022-10-25T02:46:21.391Z,8.98
2022-10-25T02:49:25.647Z,9.32
2022-10-25T02:52:30.032Z,9.39
2022-10-25T02:55:34.526Z,9.31
2022-10-25T02:58:40.623Z,9.31
2022-10-25T03:01:45.165Z,9.12
2022-10-25T03:04:54.545Z,9.19
2022-10-25T03:07:58.936Z,9.18
2022-10-25T03:11:03.647Z,9.36
2022-10-25T03:14:08.184Z,9.34
2022-10-25T03:17:12.547Z,9.40
2022-10-25T03:20:17.155Z,9.52
2022-10-25T03:23:21.602Z,9.61
2022-10-25T03:26:26.348Z,9.60
2022-10-25T03:29:33.103Z,9.56
2022-10-25T03:32:38.378Z,9.79
2022-10-25T03:35:42.834Z,9.83
2022-10-25T03:38:47.152Z,9.74
2022-10-25T03:41:51.512Z,9.90
2022-10-25T03:44:56.135Z,9.72
2022-10-25T03:48:02.826Z,9.72
2022-10-25T03:51:07.512Z,9.85
2022-10-25T03:54:11.809Z,9.76
2022-10-25T03:57:16.443Z,9.88
2022-10-25T04:00:21.089Z,9.95
2022-10-25T04:03:25.564Z,10.25
2022-10-25T04:06:30.806Z,10.09
2022-10-25T04:09:35.432Z,9.87
2022-10-25T04:12:39.780Z,9.89
2022-10-25T04:15:44.171Z,9.70
2022-10-25T04:18:48.542Z,9.96
2022-10-25T04:21:52.673Z,9.73
2022-10-25T04:24:57.317Z,9.68
2022-10-25T04:28:01.662Z,9.76
2022-10-25T04:31:06.036Z,9.70
2022-10-25T04:34:10.234Z,9.94
2022-10-25T04:37:14.594Z,10.09
2022-10-25T04:40:23.960Z,10.06
2022-10-25T04:43:30.185Z,10.04
2022-10-25T04:46:34.484Z,10.01
2022-10-25T04:49:39.775Z,9.89
2022-10-25T04:52:44.121Z,10.00
2022-10-25T04:55:58.748Z,9.93
2022-10-25T04:59:06.190Z,9.70
2022-10-25T05:02:10.664Z,9.98
2022-10-25T05:05:15.038Z,9.76
2022-10-25T05:08:19.394Z,9.82
2022-10-25T05:11:27.197Z,9.82
2022-10-25T05:14:31.461Z,9.70
2022-10-25T05:17:35.848Z,9.61
2022-10-25T05:20:40.236Z,9.68
2022-10-25T05:23:45.030Z,9.91
2022-10-25T05:26:49.328Z,9.84
2022-10-25T05:29:59.774Z,9.92
2022-10-25T05:33:04.926Z,9.97
2022-10-25T05:36:09.594Z,9.86
2022-10-25T05:39:14.139Z,9.90
2022-10-25T05:42:18.686Z,10.24
2022-10-25T05:45:23.209Z,10.46
2022-10-25T05:48:27.578Z,10.45
2022-10-25T05:51:35.638Z,10.12
2022-10-25T05:54:40.479Z,10.08
2022-10-25T05:57:51.170Z,10.14
2022-10-25T06:00:55.499Z,9.94
2022-10-25T06:04:00.299Z,10.05
2022-10-25T06:07:04.975Z,9.84
2022-10-25T06:10:10.715Z,9.56
2022-10-25T06:13:16.374Z,9.76
2022-10-25T06:16:21.865Z,9.43
2022-10-25T06:19:26.168Z,9.13
2022-10-25T06:22:31.791Z,9.14
2022-10-25T06:25:36.311Z,9.46
2022-10-25T06:28:41.546Z,9.45
2022-10-25T06:31:46.120Z,9.54
2022-10-25T06:34:50.542Z,9.69
2022-10-25T06:37:54.857Z,9.47
2022-10-25T06:41:03.945Z,9.34
2022-10-25T06:44:08.945Z,9.59
2022-10-25T06:47:17.451Z,9.54
2022-10-25T06:50:22.374Z,9.46
2022-10-25T06:53:26.864Z,9.36
2022-10-25T06:56:31.421Z,9.25
2022-10-25T06:59:35.932Z,9.15
2022-10-25T07:02:40.290Z,9.09
2022-10-25T07:05:44.621Z,8.89
2022-10-25T07:08:49.450Z,8.93
2022-10-25T07:11:53.726Z,8.75
2022-10-25T07:14:57.942Z,8.65
2022-10-25T07:18:03.596Z,8.52
2022-10-25T07:21:14.057Z,8.61
2022-10-25T07:24:18.755Z,8.49
2022-10-25T07:27:23.308Z,8.30
2022-10-25T07:30:27.767Z,7.84
2022-10-25T07:33:32.956Z,8.19
2022-10-25T07:36:37.456Z,7.89
2022-10-25T07:39:43.181Z,7.62
2022-10-25T07:42:50.056Z,7.48
2022-10-25T07:45:54.912Z,7.52
2022-10-25T07:48:59.340Z,7.50
2022-10-25T07:52:03.937Z,7.39
2022-10-25T07:55:09.147Z,7.26
2022-10-25T07:58:13.564Z,7.02
2022-10-25T08:01:29.401Z,6.99
2022-10-25T08:04:33.645Z,6.86
2022-10-25T08:07:39.438Z,6.65
2022-10-25T08:10:45.582Z,6.37
2022-10-25T08:13:51.774Z,6.01
2022-10-25T08:16:56.264Z,5.82
2022-10-25T08:20:01.160Z,5.61
2022-10-25T08:23:07.979Z,5.88
2022-10-25T08:26:12.430Z,5.82
2022-10-25T08:29:17.121Z,6.00
2022-10-25T08:32:22.944Z,6.05
2022-10-25T08:35:27.535Z,6.07
2022-10-25T08:38:32.331Z,6.06
2022-10-25T08:41:54.568Z,5.90
2022-10-25T08:45:26.624Z,5.32
2022-10-25T08:48:37.699Z,5.17
2022-10-25T08:51:46.410Z,4.99
2022-10-25T08:54:51.639Z,4.76
2022-10-25T08:57:57.913Z,4.73
2022-10-25T09:01:08.770Z,4.63
2022-10-25T09:04:13.356Z,4.33
2022-10-25T09:08:03.757Z,4.32
2022-10-25T09:11:16.340Z,3.89
2022-10-25T09:14:44.464Z,3.60
2022-10-25T09:17:54.349Z,3.85
2022-10-25T09:21:02.372Z,3.88
2022-10-25T09:24:22.518Z,4.42
2022-10-25T09:27:37.398Z,3.89
2022-10-25T09:30:45.053Z,3.28
2022-10-25T09:33:52.971Z,3.44
2022-10-25T09:37:05.949Z,3.79
2022-10-25T09:40:24.116Z,3.23
2022-10-25T09:43:55.742Z,3.29
2022-10-25T09:47:06.387Z,3.55
2022-10-25T09:50:20.380Z,3.06
2022-10-25T09:53:24.806Z,2.55
2022-10-25T09:56:29.132Z,2.29
2022-10-25T09:59:33.606Z,2.19
2022-10-25T10:02:38.335Z,1.94
2022-10-25T10:05:51.627Z,1.69
2022-10-25T10:09:05.617Z,2.23
2022-10-25T10:12:21.735Z,2.33
2022-10-25T10:15:39.555Z,1.95
2022-10-25T10:18:45.254Z,1.86
2022-10-25T10:21:51.211Z,2.77
2022-10-25T10:25:02.172Z,3.04
2022-10-25T10:28:15.817Z,1.96
2022-10-25T10:31:21.057Z,1.69
2022-10-25T10:34:28.432Z,2.94
2022-10-25T10:37:34.745Z,3.39
2022-10-25T10:40:39.259Z,3.65
2022-10-25T10:43:43.714Z,3.71
2022-10-25T10:46:50.114Z,3.72
2022-10-25T10:49:54.458Z,3.57
2022-10-25T10:53:30.380Z,2.40
2022-10-25T10:56:35.211Z,2.16
2022-10-25T10:59:46.672Z,2.80
2022-10-25T11:02:51.783Z,2.95
2022-10-25T11:06:01.198Z,2.55
2022-10-25T11:09:14.184Z,2.88
2022-10-25T11:12:19.634Z,3.31
2022-10-25T11:15:23.897Z,3.36
2022-10-25T11:18:39.397Z,2.93
2022-10-25T11:22:06.442Z,3.44
2022-10-25T11:25:13.936Z,3.95
2022-10-25T11:28:36.244Z,3.79
2022-10-25T11:31:59.173Z,3.86
2022-10-25T11:35:34.167Z,3.92
2022-10-25T11:39:01.997Z,4.08
2022-10-25T11:42:31.250Z,4.24
2022-10-25T11:45:57.205Z,4.04
2022-10-25T11:49:28.003Z,4.24
2022-10-25T11:52:44.920Z,4.33
2022-10-25T11:56:15.635Z,4.10
2022-10-25T11:59:35.168Z,4.29
2022-10-25T12:02:54.787Z,4.18
2022-10-25T12:06:25.740Z,4.09
2022-10-25T12:10:02.533Z,4.32
2022-10-25T12:13:06.630Z,4.32
2022-10-25T12:16:15.581Z,4.31
2022-10-25T12:19:28.394Z,4.35
2022-10-25T12:22:40.652Z,4.05
2022-10-25T12:25:49.462Z,4.12
2022-10-25T12:28:54.023Z,4.22
2022-10-25T12:32:02.155Z,4.13
2022-10-25T12:35:19.660Z,4.31
2022-10-25T12:38:38.113Z,4.14
2022-10-25T12:41:47.553Z,4.03
2022-10-25T12:45:14.525Z,4.07
2022-10-25T12:48:57.235Z,4.16
2022-10-25T12:52:29.378Z,4.13
2022-10-25T12:55:45.281Z,4.04
2022-10-25T12:58:55.515Z,4.25
2022-10-25T13:02:06.243Z,3.89
2022-10-25T13:05:13.298Z,3.93
2022-10-25T13:08:23.604Z,4.05
2022-10-25T13:11:40.519Z,4.05
2022-10-25T13:14:55.393Z,3.95
2022-10-25T13:18:06.107Z,3.65
2022-10-25T13:21:16.355Z,3.86
2022-10-25T13:24:42.158Z,3.72
2022-10-25T13:28:18.002Z,4.02
2022-10-25T13:31:36.983Z,3.71
2022-10-25T13:34:41.486Z,3.74
2022-10-25T13:37:46.653Z,3.62
2022-10-25T13:41:09.600Z,3.71
2022-10-25T13:44:27.482Z,3.77
2022-10-25T13:47:42.649Z,3.91
2022-10-25T13:51:09.826Z,3.84
2022-10-25T13:54:14.556Z,3.86
2022-10-25T13:57:46.235Z,3.76
2022-10-25T14:00:53.728Z,3.87
2022-10-25T14:04:21.593Z,3.48
2022-10-25T14:07:56.353Z,3.82
2022-10-25T14:11:38.884Z,3.56
2022-10-25T14:14:49.123Z,3.57
2022-10-25T14:17:54.030Z,3.46
2022-10-25T14:21:06.172Z,3.66
2022-10-25T14:24:15.677Z,3.43
2022-10-25T14:27:35.855Z,3.76
2022-10-25T14:30:51.540Z,4.06
2022-10-25T14:33:57.336Z,3.98
2022-10-25T14:37:02.626Z,3.80
2022-10-25T14:40:37.117Z,3.72
2022-10-25T14:43:44.487Z,3.77
2022-10-25T14:46:48.800Z,3.67
2022-10-25T14:49:53.089Z,3.87
2022-10-25T14:53:00.455Z,3.78
2022-10-25T14:56:07.083Z,3.89
2022-10-25T14:59:22.206Z,3.88
2022-10-25T15:02:33.972Z,4.14
2022-10-25T15:05:42.746Z,4.10
2022-10-25T15:08:51.615Z,3.94
2022-10-25T15:12:15.686Z,4.05
2022-10-25T15:15:41.443Z,4.05
2022-10-25T15:18:45.942Z,3.97
2022-10-25T15:21:54.509Z,3.71
2022-10-25T15:25:00.056Z,3.60
2022-10-25T15:28:16.818Z,3.62
2022-10-25T15:31:26.303Z,3.62
2022-10-25T15:34:30.999Z,3.16
2022-10-25T15:37:35.416Z,3.29
2022-10-25T15:40:40.161Z,3.68
2022-10-25T15:43:44.874Z,3.83
2022-10-25T15:46:49.885Z,3.87
2022-10-25T15:49:54.937Z,3.86
2022-10-25T15:52:59.367Z,3.80
2022-10-25T15:56:04.143Z,3.72
2022-10-25T15:59:08.955Z,3.70
2022-10-25T16:02:32.720Z,3.66
2022-10-25T16:05:39.343Z,3.45
2022-10-25T16:08:43.810Z,3.26
2022-10-25T16:11:54.947Z,3.32
2022-10-25T16:14:59.593Z,3.44
2022-10-25T16:18:04.157Z,3.44
2022-10-25T16:21:08.504Z,3.35
2022-10-25T16:24:14.068Z,3.36
2022-10-25T16:27:18.148Z,3.10
2022-10-25T16:30:25.879Z,3.07
2022-10-25T16:33:30.297Z,3.08
2022-10-25T16:36:34.884Z,3.04
2022-10-25T16:39:39.126Z,2.98
2022-10-25T16:42:44.111Z,2.91
2022-10-25T16:45:48.696Z,2.99
2022-10-25T16:48:56.961Z,2.93
2022-10-25T16:52:06.278Z,2.94
2022-10-25T16:55:11.588Z,2.74
2022-10-25T16:58:15.928Z,2.77
2022-10-25T17:01:41.228Z,2.86
2022-10-25T17:04:51.727Z,2.68
2022-10-25T17:07:58.846Z,2.60
2022-10-25T17:11:03.153Z,2.44
2022-10-25T17:14:10.435Z,2.58
2022-10-25T17:17:14.902Z,2.63
2022-10-25T17:20:19.272Z,2.59
2022-10-25T17:23:23.594Z,2.68
2022-10-25T17:26:28.067Z,2.69
2022-10-25T17:29:52.216Z,2.77
2022-10-25T17:32:56.694Z,2.68
2022-10-25T17:36:25.702Z,2.55
2022-10-25T17:39:29.975Z,2.19
2022-10-25T17:42:34.206Z,2.39
2022-10-25T17:45:38.859Z,2.49
2022-10-25T17:48:43.420Z,2.52
2022-10-25T17:51:48.974Z,2.24
2022-10-25T17:54:53.218Z,2.35
2022-10-25T17:57:57.939Z,2.53
2022-10-25T18:01:07.248Z,2.59
2022-10-25T18:04:11.784Z,2.90
2022-10-25T18:07:17.394Z,2.81
2022-10-25T18:10:22.060Z,2.69
2022-10-25T18:13:27.858Z,2.77
2022-10-25T18:16:32.820Z,2.91
2022-10-25T18:19:37.842Z,2.67
2022-10-25T18:22:42.514Z,3.17
2022-10-25T18:25:54.168Z,3.04
2022-10-25T18:28:59.673Z,3.07
2022-10-25T18:32:04.206Z,3.22
2022-10-25T18:35:09.953Z,3.38
2022-10-25T18:38:17.712Z,3.18
2022-10-25T18:41:31.983Z,3.11
2022-10-25T18:44:36.543Z,3.35
2022-10-25T18:47:42.232Z,2.99
2022-10-25T18:50:46.350Z,2.99
2022-10-25T18:53:57.063Z,2.89
2022-10-25T18:57:01.584Z,2.62
2022-10-25T19:00:06.897Z,3.21
2022-10-25T19:03:16.007Z,3.15
2022-10-25T19:06:20.842Z,3.18
2022-10-25T19:09:25.562Z,3.23
2022-10-25T19:12:30.274Z,2.98
2022-10-25T19:15:34.534Z,3.26
2022-10-25T19:18:39.192Z,3.27
2022-10-25T19:21:43.970Z,3.44
2022-10-25T19:24:49.082Z,3.28
2022-10-25T19:27:53.540Z,3.01
2022-10-25T19:30:57.805Z,3.13
2022-10-25T19:34:04.095Z,3.14
2022-10-25T19:37:09.745Z,2.86
2022-10-25T19:40:14.226Z,2.91
2022-10-25T19:43:19.828Z,2.75
2022-10-25T19:46:24.606Z,2.70
2022-10-25T19:49:29.688Z,2.55
2022-10-25T19:52:38.232Z,2.62
2022-10-25T19:55:42.838Z,2.44
2022-10-25T19:58:47.336Z,2.51
2022-10-25T20:01:51.757Z,2.60
2022-10-25T20:04:56.411Z,2.50
2022-10-25T20:08:00.806Z,2.59
2022-10-25T20:11:05.785Z,2.55
2022-10-25T20:14:10.723Z,2.71
2022-10-25T20:17:16.266Z,2.48
2022-10-25T20:20:20.554Z,2.57
2022-10-25T20:23:25.160Z,2.64
2022-10-25T20:26:31.899Z,2.68
2022-10-25T20:29:36.458Z,2.80
2022-10-25T20:32:41.063Z,2.65
2022-10-25T20:35:46.696Z,2.54
2022-10-25T20:38:51.038Z,2.19
2022-10-25T20:41:55.579Z,2.43
2022-10-25T20:45:00.061Z,2.14
2022-10-25T20:48:04.725Z,2.17
2022-10-25T20:51:10.569Z,2.26
2022-10-25T20:54:17.057Z,2.31
2022-10-25T20:57:21.827Z,2.23
2022-10-25T21:00:26.181Z,2.22
2022-10-25T21:03:33.638Z,2.25
2022-10-25T21:06:38.186Z,2.30
2022-10-25T21:09:47.064Z,2.32
2022-10-25T21:12:53.892Z,2.35
2022-10-25T21:15:58.837Z,2.25
2022-10-25T21:19:06.483Z,2.05
2022-10-25T21:22:10.877Z,2.05
2022-10-25T21:25:16.455Z,2.03
2022-10-25T21:28:21.032Z,1.98
2022-10-25T21:31:25.526Z,1.84
2022-10-25T21:34:29.956Z,2.03
2022-10-25T21:37:34.580Z,2.22
2022-10-25T21:40:38.992Z,1.96
2022-10-25T21:43:46.444Z,2.14
2022-10-25T21:46:51.090Z,1.71
2022-10-25T21:49:55.381Z,2.09
2022-10-25T21:52:59.873Z,2.08
2022-10-25T21:56:11.098Z,2.21
2022-10-25T21:59:15.534Z,1.92
2022-10-25T22:02:20.109Z,2.39
2022-10-25T22:05:24.497Z,2.39
2022-10-25T22:08:28.690Z,2.16
2022-10-25T22:11:36.315Z,2.19
2022-10-25T22:14:40.578Z,2.23
2022-10-25T22:17:45.083Z,2.27
2022-10-25T22:21:01.046Z,2.57
2022-10-25T22:24:09.250Z,2.50
2022-10-25T22:27:13.653Z,2.41
2022-10-25T22:30:19.120Z,2.24
2022-10-25T22:33:23.615Z,2.46
2022-10-25T22:36:30.354Z,2.54
2022-10-25T22:39:34.741Z,2.68
2022-10-25T22:42:38.986Z,2.94
2022-10-25T22:45:43.415Z,3.08
2022-10-25T22:48:47.741Z,3.19
2022-10-25T22:51:52.272Z,3.47
2022-10-25T22:54:56.652Z,3.91
2022-10-25T22:58:00.997Z,4.01
2022-10-25T23:01:08.526Z,4.22
2022-10-25T23:04:13.006Z,4.61
2022-10-25T23:07:17.548Z,4.44
2022-10-25T23:10:21.955Z,4.33
2022-10-25T23:13:26.324Z,4.11
2022-10-25T23:16:31.126Z,3.95
2022-10-25T23:19:35.357Z,4.16
2022-10-25T23:22:40.056Z,4.40
2022-10-25T23:25:44.549Z,4.50
2022-10-25T23:28:49.213Z,4.43
2022-10-25T23:31:53.423Z,4.57
2022-10-25T23:34:57.644Z,4.98
2022-10-25T23:38:03.371Z,4.84
2022-10-25T23:41:07.746Z,4.88
2022-10-25T23:44:12.589Z,4.96
2022-10-25T23:47:17.029Z,5.07
2022-10-25T23:50:21.616Z,5.21
2022-10-25T23:53:26.215Z,5.05
2022-10-25T23:56:30.370Z,5.61
2022-10-25T23:59:34.958Z,5.52
